TUF weather

Tours-Val-de-Loire Airport
Tours/Val de Loire (Loire Valley), Centre, France

Public forecast

Using degrees Celsius for public forecast. Weather courtesy of forecast.io.

Current aviation weather report (METAR) for Tours-Val-de-Loire Airport

Retrieved 2019/10/21 17:30 UTC (0 seconds ago):

LFOT 211730Z AUTO 00000KT CAVOK 12/07 Q1021 NOSIG

Aviation forecast (TAF) for Tours-Val-de-Loire Airport

Retrieved 2019/10/21 12:21 UTC (5 hours ago):

TAF LFOT 211100Z 2112/2212 22005KT 9999 BKN020 BECMG 2117/2119 CAVOK TEMPO 2120/2210 1500 BR PROB40 TEMPO 2201/2209 0600 FG BKN002 BECMG 2204/2206 06005KT TEMPO 2209/2212 SCT010